createdAt,value
2017-08-03T00:01:54.903Z,9.13
2017-08-03T00:04:24.813Z,13.83
2017-08-03T00:06:54.714Z,12.23
2017-08-03T00:09:25.051Z,8.47
2017-08-03T00:11:54.896Z,7.10
2017-08-03T00:14:25.176Z,12.40
2017-08-03T00:16:55.029Z,10.50
2017-08-03T00:19:25.499Z,7.20
2017-08-03T00:21:55.431Z,5.50
2017-08-03T00:24:25.637Z,8.57
2017-08-03T00:26:55.486Z,8.40
2017-08-03T00:29:25.709Z,9.53
2017-08-03T00:31:55.561Z,7.70
2017-08-03T00:34:25.477Z,5.83
2017-08-03T00:36:55.727Z,10.10
2017-08-03T00:39:25.580Z,6.43
2017-08-03T00:41:55.461Z,7.10
2017-08-03T00:44:25.766Z,7.00
2017-08-03T00:46:55.616Z,7.27
2017-08-03T00:49:25.478Z,8.73
2017-08-03T00:51:55.738Z,8.40
2017-08-03T00:54:25.604Z,7.43
2017-08-03T00:56:55.495Z,7.90
2017-08-03T00:59:25.766Z,7.50
2017-08-03T01:01:55.634Z,7.70
2017-08-03T01:04:25.507Z,9.00
2017-08-03T01:06:55.721Z,8.53
2017-08-03T01:09:25.586Z,9.87
2017-08-03T01:11:55.501Z,7.53
2017-08-03T01:14:25.774Z,9.17
2017-08-03T01:16:55.639Z,9.80
2017-08-03T01:19:25.512Z,9.27
2017-08-03T01:21:55.811Z,13.67
2017-08-03T01:24:25.694Z,7.87
2017-08-03T01:26:55.579Z,8.93
2017-08-03T01:29:25.865Z,10.03
2017-08-03T01:31:55.715Z,8.57
2017-08-03T01:34:25.572Z,11.30
2017-08-03T01:36:55.920Z,8.70
2017-08-03T01:39:25.766Z,8.73
2017-08-03T01:41:55.657Z,8.30
2017-08-03T01:44:25.964Z,7.90
2017-08-03T01:46:55.818Z,10.97
2017-08-03T01:49:25.681Z,9.37
2017-08-03T01:51:55.891Z,8.47
2017-08-03T01:54:25.750Z,9.90
2017-08-03T01:56:55.639Z,12.20
2017-08-03T01:59:25.844Z,9.80
2017-08-03T02:01:55.691Z,11.93
2017-08-03T02:04:25.547Z,9.70
2017-08-03T02:06:55.798Z,9.23
2017-08-03T02:09:25.667Z,9.87
2017-08-03T02:11:55.532Z,8.87
2017-08-03T02:14:25.835Z,9.00
2017-08-03T02:16:55.676Z,10.90
2017-08-03T02:19:25.542Z,8.53
2017-08-03T02:21:55.787Z,8.20
2017-08-03T02:24:25.646Z,8.60
2017-08-03T02:26:55.563Z,8.40
2017-08-03T02:29:25.841Z,8.60
2017-08-03T02:31:55.707Z,8.93
2017-08-03T02:34:25.582Z,9.13
2017-08-03T02:36:55.904Z,11.30
2017-08-03T02:39:25.765Z,11.60
2017-08-03T02:41:55.634Z,9.97
2017-08-03T02:44:25.866Z,11.53
2017-08-03T02:46:55.719Z,10.83
2017-08-03T02:49:25.590Z,11.10
2017-08-03T02:51:55.909Z,10.77
2017-08-03T02:54:25.762Z,10.13
2017-08-03T02:56:55.633Z,11.73
2017-08-03T02:59:25.844Z,12.40
2017-08-03T03:01:55.734Z,11.87
2017-08-03T03:04:25.685Z,12.70
2017-08-03T03:06:55.911Z,12.63
2017-08-03T03:09:25.766Z,21.90
2017-08-03T03:11:55.651Z,13.27
2017-08-03T03:14:26.049Z,12.93
2017-08-03T03:16:55.943Z,13.70
2017-08-03T03:19:26.267Z,11.87
2017-08-03T03:21:56.113Z,13.33
2017-08-03T03:24:26.320Z,12.53
2017-08-03T03:26:56.192Z,13.00
2017-08-03T03:29:26.426Z,15.40
2017-08-03T03:31:56.298Z,13.67
2017-08-03T03:34:26.666Z,11.50
2017-08-03T03:36:56.535Z,13.83
2017-08-03T03:39:26.805Z,14.50
2017-08-03T03:41:56.923Z,12.73
2017-08-03T03:44:27.155Z,14.47
2017-08-03T03:46:57.008Z,13.10
2017-08-03T03:49:27.291Z,14.73
2017-08-03T03:51:57.171Z,12.37
2017-08-03T03:54:27.524Z,15.27
2017-08-03T03:56:57.580Z,13.93
2017-08-03T03:59:27.826Z,18.00
2017-08-03T04:01:57.786Z,15.37
2017-08-03T04:04:27.664Z,15.67
2017-08-03T04:06:57.920Z,14.30
2017-08-03T04:09:27.839Z,14.70
2017-08-03T04:11:58.157Z,18.20
2017-08-03T04:14:27.973Z,15.63
2017-08-03T04:16:58.293Z,15.03
2017-08-03T04:19:28.160Z,19.20
2017-08-03T04:21:58.403Z,19.90
2017-08-03T04:24:28.293Z,14.00
2017-08-03T04:26:58.539Z,14.97
2017-08-03T04:29:28.420Z,20.67
2017-08-03T04:31:58.663Z,14.23
2017-08-03T04:34:28.532Z,16.53
2017-08-03T04:36:58.811Z,14.07
2017-08-03T04:39:28.675Z,13.90
2017-08-03T04:41:58.608Z,15.20
2017-08-03T04:44:28.818Z,17.43
2017-08-03T04:46:58.678Z,16.70
2017-08-03T04:49:28.554Z,16.87
2017-08-03T04:51:58.769Z,17.93
2017-08-03T04:54:28.652Z,15.40
2017-08-03T04:56:58.534Z,14.90
2017-08-03T04:59:28.757Z,17.50
2017-08-03T05:01:58.668Z,18.90
2017-08-03T05:04:28.560Z,14.67
2017-08-03T05:06:58.827Z,18.57
2017-08-03T05:09:28.700Z,18.93
2017-08-03T05:11:58.601Z,16.63
2017-08-03T05:14:28.833Z,14.37
2017-08-03T05:16:58.698Z,17.60
2017-08-03T05:19:28.574Z,15.50
2017-08-03T05:21:58.814Z,15.60
2017-08-03T05:24:28.670Z,14.03
2017-08-03T05:26:58.565Z,23.50
2017-08-03T05:29:28.858Z,15.13
2017-08-03T05:31:58.759Z,16.53
2017-08-03T05:34:28.631Z,15.90
2017-08-03T05:36:58.866Z,15.37
2017-08-03T05:39:28.744Z,17.00
2017-08-03T05:41:58.645Z,13.80
2017-08-03T05:44:28.929Z,14.27
2017-08-03T05:46:58.798Z,13.47
2017-08-03T05:49:28.667Z,15.93
2017-08-03T05:51:58.881Z,13.30
2017-08-03T05:54:28.752Z,12.97
2017-08-03T05:56:59.132Z,12.13
2017-08-03T05:59:28.995Z,15.70
2017-08-03T06:01:59.201Z,13.63
2017-08-03T06:04:29.096Z,14.40
2017-08-03T06:06:59.382Z,14.97
2017-08-03T06:09:29.262Z,18.53
2017-08-03T06:11:59.601Z,14.60
2017-08-03T06:14:29.466Z,15.83
2017-08-03T06:17:00.073Z,13.17
2017-08-03T06:19:29.936Z,16.00
2017-08-03T06:22:00.198Z,16.50
2017-08-03T06:24:30.053Z,15.50
2017-08-03T06:27:00.344Z,16.13
2017-08-03T06:29:30.192Z,23.13
2017-08-03T06:32:00.481Z,20.00
2017-08-03T06:34:30.407Z,16.47
2017-08-03T06:37:00.723Z,17.83
2017-08-03T06:39:30.600Z,16.53
2017-08-03T06:42:00.858Z,17.87
2017-08-03T06:44:30.810Z,22.30
2017-08-03T06:47:00.691Z,17.63
2017-08-03T06:49:30.919Z,17.33
2017-08-03T06:52:00.774Z,18.47
2017-08-03T06:54:30.714Z,23.70
2017-08-03T06:57:00.965Z,19.10
2017-08-03T06:59:30.847Z,16.27
2017-08-03T07:02:01.076Z,20.50
2017-08-03T07:04:30.940Z,17.37
2017-08-03T07:07:01.371Z,17.57
2017-08-03T07:09:31.225Z,18.60
2017-08-03T07:12:01.469Z,20.07
2017-08-03T07:14:31.335Z,16.10
2017-08-03T07:17:01.605Z,17.10
2017-08-03T07:19:31.479Z,14.37
2017-08-03T07:22:01.732Z,15.90
2017-08-03T07:24:31.695Z,15.23
2017-08-03T07:27:01.620Z,14.80
2017-08-03T07:29:31.862Z,14.27
2017-08-03T07:32:02.629Z,14.57
2017-08-03T07:34:32.905Z,14.73
2017-08-03T07:37:02.830Z,14.93
2017-08-03T07:39:33.087Z,16.93
2017-08-03T07:42:02.950Z,13.03
2017-08-03T07:44:33.174Z,13.20
2017-08-03T07:47:03.062Z,12.67
2017-08-03T07:49:33.328Z,13.17
2017-08-03T07:52:03.179Z,14.57
2017-08-03T07:54:33.432Z,15.23
2017-08-03T07:57:03.314Z,12.93
2017-08-03T07:59:33.547Z,13.40
2017-08-03T08:02:03.413Z,12.63
2017-08-03T08:04:33.658Z,15.13
2017-08-03T08:07:03.542Z,14.83
2017-08-03T08:09:33.758Z,12.97
2017-08-03T08:12:03.621Z,12.93
2017-08-03T08:14:33.501Z,11.73
2017-08-03T08:17:03.833Z,19.87
2017-08-03T08:19:33.695Z,11.37
2017-08-03T08:22:03.586Z,10.67
2017-08-03T08:24:33.935Z,10.00
2017-08-03T08:27:03.849Z,11.73
2017-08-03T08:29:34.271Z,9.77
2017-08-03T08:32:04.147Z,8.73
2017-08-03T08:34:34.459Z,9.70
2017-08-03T08:37:04.336Z,10.70
2017-08-03T08:39:34.558Z,11.03
2017-08-03T08:42:04.404Z,8.47
2017-08-03T08:44:34.722Z,10.80
2017-08-03T08:47:04.616Z,9.80
2017-08-03T08:49:35.201Z,15.70
2017-08-03T08:52:05.094Z,12.03
2017-08-03T08:54:35.349Z,10.20
2017-08-03T08:57:05.204Z,8.90
2017-08-03T08:59:35.512Z,8.80
2017-08-03T09:02:05.412Z,7.97
2017-08-03T09:04:35.665Z,10.33
2017-08-03T09:07:05.538Z,7.07
2017-08-03T09:09:35.790Z,8.40
2017-08-03T09:12:05.670Z,7.13
2017-08-03T09:14:35.647Z,8.73
2017-08-03T09:17:06.036Z,11.30
2017-08-03T09:19:35.910Z,7.90
2017-08-03T09:22:06.185Z,12.17
2017-08-03T09:24:36.060Z,10.40
2017-08-03T09:27:06.355Z,7.80
2017-08-03T09:29:36.243Z,13.67
2017-08-03T09:32:06.567Z,7.73
2017-08-03T09:34:36.440Z,11.83
2017-08-03T09:37:06.673Z,13.03
2017-08-03T09:39:36.530Z,8.90
2017-08-03T09:42:06.827Z,11.67
2017-08-03T09:44:36.711Z,6.17
2017-08-03T09:47:06.638Z,6.63
2017-08-03T09:49:37.027Z,10.63
2017-08-03T09:52:07.810Z,9.30
2017-08-03T09:54:38.040Z,5.47
2017-08-03T09:57:07.911Z,6.93
2017-08-03T09:59:38.586Z,6.83
2017-08-03T10:02:08.481Z,5.60
2017-08-03T10:04:38.712Z,8.40
2017-08-03T10:07:08.572Z,7.13
2017-08-03T10:09:38.455Z,5.90
2017-08-03T10:12:08.774Z,7.70
2017-08-03T10:14:38.645Z,8.10
2017-08-03T10:17:08.901Z,7.60
2017-08-03T10:19:38.741Z,7.00
2017-08-03T10:22:08.639Z,6.93
2017-08-03T10:24:38.967Z,10.83
2017-08-03T10:27:08.920Z,7.80
2017-08-03T10:29:39.274Z,6.20
2017-08-03T10:32:09.139Z,5.57
2017-08-03T10:34:39.522Z,9.60
2017-08-03T10:37:09.411Z,5.90
2017-08-03T10:39:39.647Z,5.67
2017-08-03T10:42:09.491Z,6.60
2017-08-03T10:44:39.793Z,9.53
2017-08-03T10:47:09.642Z,6.17
2017-08-03T10:49:39.542Z,11.07
2017-08-03T10:52:09.819Z,10.47
2017-08-03T10:54:39.708Z,8.40
2017-08-03T10:57:09.599Z,16.40
2017-08-03T10:59:39.978Z,6.40
2017-08-03T11:02:09.924Z,9.90
2017-08-03T11:07:38.748Z,8.70
2017-08-03T11:10:10.211Z,5.73
2017-08-03T11:12:41.293Z,6.37
2017-08-03T11:15:11.615Z,6.67
2017-08-03T11:17:41.455Z,8.30
2017-08-03T11:20:12.721Z,11.70
2017-08-03T11:22:42.590Z,7.20
2017-08-03T11:25:12.816Z,8.10
2017-08-03T11:27:42.671Z,9.53
2017-08-03T11:30:12.532Z,6.03
2017-08-03T11:32:42.736Z,11.57
2017-08-03T11:35:53.847Z,7.80
2017-08-03T11:42:07.814Z,4.30
2017-08-03T11:47:23.597Z,7.47
2017-08-03T11:49:53.449Z,3.40
2017-08-03T11:52:23.743Z,6.97
2017-08-03T11:54:53.605Z,9.10
2017-08-03T11:57:23.878Z,5.97
2017-08-03T11:59:53.748Z,4.10
2017-08-03T12:02:23.601Z,5.43
2017-08-03T12:04:53.812Z,8.83
2017-08-03T12:07:23.676Z,4.07
2017-08-03T12:09:53.552Z,7.07
2017-08-03T12:12:23.879Z,3.50
2017-08-03T12:14:53.719Z,6.37
2017-08-03T12:17:23.600Z,4.93
2017-08-03T12:19:53.899Z,7.03
2017-08-03T12:22:23.834Z,4.00
2017-08-03T12:24:58.697Z,3.97
2017-08-03T12:27:28.549Z,3.47
2017-08-03T12:29:58.427Z,5.67
2017-08-03T12:32:28.669Z,5.33
2017-08-03T12:34:58.516Z,5.73
2017-08-03T12:37:28.709Z,3.90
2017-08-03T12:39:59.215Z,4.83
2017-08-03T12:42:29.518Z,4.93
2017-08-03T12:44:59.382Z,6.10
2017-08-03T12:47:29.844Z,3.93
2017-08-03T12:49:59.711Z,4.90
2017-08-03T12:52:29.624Z,5.23
2017-08-03T12:54:59.867Z,5.60
2017-08-03T12:57:29.739Z,4.13
2017-08-03T12:59:59.637Z,6.10
2017-08-03T13:02:31.010Z,3.93
2017-08-03T13:05:00.968Z,5.80
2017-08-03T13:07:32.122Z,2.77
2017-08-03T13:10:01.976Z,5.70
2017-08-03T13:12:32.264Z,7.73
2017-08-03T13:15:02.189Z,3.83
2017-08-03T13:17:34.223Z,2.93
2017-08-03T13:20:05.249Z,2.50
2017-08-03T13:22:38.891Z,3.00
2017-08-03T13:25:08.737Z,2.83
2017-08-03T13:27:38.965Z,2.87
2017-08-03T13:30:08.968Z,8.80
2017-08-03T13:32:39.278Z,2.50
2017-08-03T13:35:09.161Z,2.53
2017-08-03T13:37:39.473Z,2.07
2017-08-03T13:40:09.323Z,8.33
2017-08-03T13:42:39.631Z,2.80
2017-08-03T13:45:09.470Z,8.43
2017-08-03T13:47:39.682Z,5.00
2017-08-03T13:50:09.550Z,3.93
2017-08-03T13:52:39.940Z,4.03
2017-08-03T13:55:09.825Z,6.00
2017-08-03T13:57:39.699Z,1.67
2017-08-03T14:00:10.022Z,8.43
2017-08-03T14:02:39.907Z,10.30
2017-08-03T14:05:10.302Z,2.80
2017-08-03T14:07:40.153Z,1.93
2017-08-03T14:10:10.370Z,39.23
2017-08-03T14:12:40.259Z,29.10
2017-08-03T14:15:10.442Z,6.90
2017-08-03T14:17:40.293Z,3.97
2017-08-03T14:20:10.486Z,3.20
2017-08-03T14:22:40.356Z,7.20
2017-08-03T14:25:10.699Z,5.00
2017-08-03T14:27:40.565Z,2.77
2017-08-03T14:30:10.746Z,2.77
2017-08-03T14:32:40.600Z,2.03
2017-08-03T14:35:10.466Z,2.60
2017-08-03T14:37:40.784Z,3.90
2017-08-03T14:40:10.624Z,2.63
2017-08-03T14:45:17.435Z,3.87
2017-08-03T14:47:47.716Z,3.53
2017-08-03T14:50:17.605Z,4.90
2017-08-03T14:52:47.906Z,3.30
2017-08-03T14:55:17.747Z,3.53
2017-08-03T14:57:47.656Z,2.93
2017-08-03T15:00:18.043Z,4.83
2017-08-03T15:02:47.942Z,2.80
2017-08-03T15:05:18.302Z,3.30
2017-08-03T15:07:48.198Z,2.40
2017-08-03T15:10:18.478Z,2.53
2017-08-03T15:12:48.360Z,2.10
2017-08-03T15:15:18.677Z,5.13
2017-08-03T15:17:48.625Z,2.20
2017-08-03T15:20:20.366Z,3.53
2017-08-03T15:22:50.244Z,3.43
2017-08-03T15:25:20.150Z,3.97
2017-08-03T15:27:50.385Z,4.00
2017-08-03T15:30:20.252Z,2.63
2017-08-03T15:32:50.530Z,1.70
2017-08-03T15:35:20.393Z,2.13
2017-08-03T15:37:50.636Z,3.00
2017-08-03T15:40:20.509Z,2.97
2017-08-03T15:42:50.842Z,2.57
2017-08-03T15:45:20.798Z,3.60
2017-08-03T15:47:50.744Z,3.33
2017-08-03T15:50:21.094Z,5.00
2017-08-03T15:52:50.982Z,5.50
2017-08-03T15:55:21.345Z,4.00
2017-08-03T15:57:51.234Z,3.77
2017-08-03T16:00:21.516Z,3.80
2017-08-03T16:02:51.371Z,6.20
2017-08-03T16:05:21.826Z,1.70
2017-08-03T16:07:51.692Z,6.23
2017-08-03T16:10:22.014Z,5.13
2017-08-03T16:12:51.852Z,6.30
2017-08-03T16:15:22.094Z,8.23
2017-08-03T16:17:51.961Z,4.47
2017-08-03T16:20:22.210Z,4.53
2017-08-03T16:22:52.114Z,15.83
2017-08-03T16:25:22.423Z,4.63
2017-08-03T16:27:52.283Z,4.20
2017-08-03T16:30:22.534Z,8.00
2017-08-03T16:32:52.415Z,6.87
2017-08-03T16:35:22.690Z,7.40
2017-08-03T16:37:52.530Z,3.30
2017-08-03T16:40:22.851Z,6.87
2017-08-03T16:42:52.716Z,4.93
2017-08-03T16:45:22.602Z,5.00
2017-08-03T16:47:52.870Z,4.30
2017-08-03T16:50:22.799Z,6.40
2017-08-03T16:52:52.677Z,5.73
2017-08-03T16:55:23.003Z,3.53
2017-08-03T16:57:52.885Z,8.40
2017-08-03T17:00:23.280Z,6.33
2017-08-03T17:02:53.160Z,5.60
2017-08-03T17:05:23.391Z,8.70
2017-08-03T17:07:53.249Z,6.77
2017-08-03T17:10:23.549Z,5.60
2017-08-03T17:12:53.486Z,6.53
2017-08-03T17:15:23.788Z,6.07
2017-08-03T17:17:53.640Z,9.00
2017-08-03T17:20:23.912Z,4.80
2017-08-03T17:22:53.777Z,7.00
2017-08-03T17:25:23.689Z,9.10
2017-08-03T17:27:53.983Z,8.30
2017-08-03T17:30:23.945Z,6.63
2017-08-03T17:32:54.349Z,7.20
2017-08-03T17:35:24.375Z,5.10
2017-08-03T17:37:54.656Z,8.90
2017-08-03T17:40:24.616Z,9.00
2017-08-03T17:42:54.877Z,7.20
2017-08-03T17:45:24.740Z,5.63
2017-08-03T17:47:54.638Z,7.20
2017-08-03T17:50:24.914Z,13.13
2017-08-03T17:52:54.909Z,5.93
2017-08-03T17:55:25.410Z,9.63
2017-08-03T17:57:55.309Z,7.97
2017-08-03T18:00:25.678Z,7.70
2017-08-03T18:02:55.562Z,6.27
2017-08-03T18:05:25.844Z,10.97
2017-08-03T18:07:55.731Z,4.80
2017-08-03T18:10:25.612Z,8.67
2017-08-03T18:12:55.880Z,21.33
2017-08-03T18:15:25.749Z,9.90
2017-08-03T18:17:55.700Z,5.17
2017-08-03T18:20:26.040Z,9.43
2017-08-03T18:22:55.920Z,11.60
2017-08-03T18:25:26.181Z,7.27
2017-08-03T18:27:56.058Z,7.20
2017-08-03T18:30:26.312Z,6.90
2017-08-03T18:32:56.207Z,8.00
2017-08-03T18:35:26.534Z,8.97
2017-08-03T18:37:56.398Z,7.17
2017-08-03T18:40:26.679Z,13.50
2017-08-03T18:42:56.634Z,12.90
2017-08-03T18:45:26.959Z,7.10
2017-08-03T18:47:56.815Z,5.07
2017-08-03T18:50:26.679Z,7.30
2017-08-03T18:52:57.013Z,9.60
2017-08-03T18:55:26.895Z,11.50
2017-08-03T18:57:57.184Z,9.80
2017-08-03T19:00:27.096Z,9.00
2017-08-03T19:02:57.578Z,12.07
2017-08-03T19:05:27.470Z,6.83
2017-08-03T19:07:57.780Z,15.03
2017-08-03T19:10:27.741Z,18.73
2017-08-03T19:12:57.777Z,8.30
2017-08-03T19:15:28.039Z,15.83
2017-08-03T19:17:57.973Z,9.93
2017-08-03T19:20:28.409Z,9.33
2017-08-03T19:22:58.277Z,12.53
2017-08-03T19:25:28.508Z,6.63
2017-08-03T19:27:58.418Z,15.53
2017-08-03T19:30:30.120Z,19.73
2017-08-03T19:33:00.005Z,13.43
2017-08-03T19:35:29.995Z,8.63
2017-08-03T19:38:00.451Z,7.70
2017-08-03T19:40:30.434Z,14.10
2017-08-03T19:43:00.671Z,9.13
2017-08-03T19:45:30.697Z,17.70
2017-08-03T19:48:00.991Z,8.70
2017-08-03T19:50:30.964Z,19.60
2017-08-03T19:53:01.201Z,9.07
2017-08-03T19:55:31.110Z,7.90
2017-08-03T19:58:01.412Z,8.10
2017-08-03T20:00:31.305Z,11.50
2017-08-03T20:03:02.119Z,11.03
2017-08-03T20:05:42.834Z,8.60
2017-08-03T20:08:13.222Z,7.07
2017-08-03T20:10:43.997Z,5.67
2017-08-03T20:13:18.158Z,10.40
2017-08-03T20:15:48.035Z,6.50
2017-08-03T20:18:18.412Z,12.97
2017-08-03T20:20:48.352Z,10.00
2017-08-03T20:23:18.657Z,15.10
2017-08-03T20:25:48.515Z,10.63
2017-08-03T20:28:18.797Z,8.63
2017-08-03T20:30:48.686Z,7.23
2017-08-03T20:33:18.605Z,7.10
2017-08-03T20:35:48.945Z,8.60
2017-08-03T20:38:18.813Z,14.63
2017-08-03T20:40:49.125Z,8.47
2017-08-03T20:43:19.039Z,8.30
2017-08-03T20:45:49.414Z,8.63
2017-08-03T20:48:19.279Z,6.70
2017-08-03T20:50:49.640Z,9.97
2017-08-03T20:53:19.502Z,7.67
2017-08-03T20:55:49.770Z,8.43
2017-08-03T20:58:19.725Z,7.53
2017-08-03T21:00:49.814Z,9.07
2017-08-03T21:03:20.131Z,7.37
2017-08-03T21:05:49.999Z,6.10
2017-08-03T21:08:20.281Z,9.80
2017-08-03T21:10:50.207Z,10.63
2017-08-03T21:13:20.552Z,16.53
2017-08-03T21:15:50.482Z,8.97
2017-08-03T21:18:20.705Z,14.13
2017-08-03T21:20:50.610Z,8.80
2017-08-03T21:23:24.094Z,11.73
2017-08-03T21:25:53.970Z,7.03
2017-08-03T21:28:24.297Z,16.33
2017-08-03T21:30:55.340Z,9.23
2017-08-03T21:33:25.656Z,8.67
2017-08-03T21:35:55.531Z,10.53
2017-08-03T21:38:25.770Z,6.33
2017-08-03T21:40:58.614Z,7.30
2017-08-03T21:43:28.901Z,9.40
2017-08-03T21:45:58.790Z,14.97
2017-08-03T21:48:28.670Z,13.40
2017-08-03T21:50:59.085Z,13.57
2017-08-03T21:53:28.973Z,10.43
2017-08-03T21:55:59.288Z,6.63
2017-08-03T21:58:29.164Z,8.33
2017-08-03T22:01:11.302Z,13.13
2017-08-03T22:03:41.207Z,9.03
2017-08-03T22:06:11.537Z,12.00
2017-08-03T22:08:41.473Z,12.33
2017-08-03T22:13:47.729Z,8.33
2017-08-03T22:16:18.799Z,8.13
2017-08-03T22:18:48.654Z,5.20
2017-08-03T22:21:18.523Z,11.40
2017-08-03T22:23:48.866Z,6.07
2017-08-03T22:26:18.747Z,18.87
2017-08-03T22:28:48.617Z,8.40
2017-08-03T22:31:18.851Z,11.37
2017-08-03T22:33:48.743Z,14.20
2017-08-03T22:36:18.624Z,6.97
2017-08-03T22:38:48.869Z,10.03
2017-08-03T22:41:18.776Z,11.43
2017-08-03T22:43:49.153Z,9.80
2017-08-03T22:46:19.032Z,8.60
2017-08-03T22:48:49.256Z,11.40
2017-08-03T22:51:19.127Z,8.77
2017-08-03T22:53:49.521Z,17.87
2017-08-03T22:56:19.407Z,10.20
2017-08-03T22:58:51.795Z,6.23
2017-08-03T23:01:21.662Z,11.13
2017-08-03T23:03:51.576Z,8.97
2017-08-03T23:06:21.838Z,12.10
2017-08-03T23:08:51.694Z,10.43
2017-08-03T23:11:21.569Z,15.50
2017-08-03T23:13:51.897Z,14.00
2017-08-03T23:16:21.770Z,10.47
2017-08-03T23:18:51.667Z,7.83
2017-08-03T23:21:21.950Z,9.70
2017-08-03T23:23:51.801Z,11.40
2017-08-03T23:26:22.714Z,8.80
2017-08-03T23:28:52.563Z,16.13
2017-08-03T23:31:22.825Z,18.20
2017-08-03T23:33:52.684Z,15.00
2017-08-03T23:36:22.563Z,10.33
2017-08-03T23:38:53.021Z,8.70
2017-08-03T23:41:22.894Z,11.33
2017-08-03T23:43:53.333Z,10.47
2017-08-03T23:46:23.208Z,11.93
2017-08-03T23:48:53.459Z,17.33
2017-08-03T23:51:23.338Z,11.70
2017-08-03T23:53:53.677Z,9.90
2017-08-03T23:56:23.557Z,7.90
2017-08-03T23:58:53.754Z,9.93
